Litchfield, Ohio
Current Conditions -  °F | °C
As of 4:53 PM on Monday 22 Dec 2014 (Local Time) from KLPR Reporting Station
Clear Clear  
Wind Chill: 36°   Ceiling: Unl
Heat Index: 40°   Visibility: 9mi
Dew Point: 32°   Wind: 6mph
Humidity: 73%   Direction: 130°SE
Pressure: 29.94"   Gusts: NA
Location:  41.17°N, 82.02°W
Report Text: KLPR 222153Z AUTO 13005KT 9SM CLR 04/00 A2994 RMK AO2 SLP148 T00440000 TSNO
Loading
Personal Weather Stations






























Interactive Weather Map New forecast layout! Learn more

10-Day Weather Forecast

Advertisements
Track Severe Weather on mobile